Time;durP1;ratioP1;P1;durP2;ratioP2;P2;SDS_P1;SDS_P2;PMS_P1;PMS_P2;Temp;Humidity;BMP_temperature;BMP_pressure;BME280_temperature;BME280_humidity;BME280_pressure;Samples;Min_cycle;Max_cycle;Signal;HPM_P1;HPM_P2
2023/06/17 00:00:07;;;;;;;15.73;7.72;;;;;;;18.04;100.00;97652.09;5158822;27;20046;-50
2023/06/17 00:02:34;;;;;;;12.70;7.72;;;;;;;18.04;100.00;97658.41;5158437;27;20061;-55
2023/06/17 00:05:00;;;;;;;11.00;6.30;;;;;;;18.04;100.00;97668.72;5158815;27;20419;-53
2023/06/17 00:07:26;;;;;;;16.20;7.03;;;;;;;18.01;100.00;97664.84;5158339;27;20082;-51
2023/06/17 00:09:52;;;;;;;10.23;7.30;;;;;;;18.01;100.00;97675.16;5158691;27;20191;-53
2023/06/17 00:12:18;;;;;;;10.73;6.75;;;;;;;17.95;100.00;97665.88;5158219;27;20046;-58
2023/06/17 00:14:46;;;;;;;11.65;9.18;;;;;;;17.79;100.00;97653.75;5157265;27;20150;-58
2023/06/17 00:17:12;;;;;;;10.80;7.70;;;;;;;17.80;100.00;97652.53;5158447;27;20114;-51
2023/06/17 00:19:38;;;;;;;22.08;7.22;;;;;;;17.87;100.00;97676.47;5158294;27;20366;-52
2023/06/17 00:22:05;;;;;;;10.40;7.72;;;;;;;17.90;100.00;97735.78;5158412;27;20051;-54
2023/06/17 00:24:31;;;;;;;20.02;7.15;;;;;;;17.95;100.00;97697.16;5158060;27;20430;-54
2023/06/17 00:26:57;;;;;;;11.73;7.03;;;;;;;17.84;100.00;97692.00;5158454;27;20137;-58
2023/06/17 00:29:24;;;;;;;14.38;9.85;;;;;;;17.80;100.00;97685.03;5158391;27;20145;-59
2023/06/17 00:31:50;;;;;;;14.43;7.15;;;;;;;17.87;100.00;97752.06;5158330;27;20110;-58
2023/06/17 00:34:16;;;;;;;9.93;7.05;;;;;;;17.92;100.00;97736.09;5158003;27;20141;-57
2023/06/17 00:36:42;;;;;;;11.88;7.07;;;;;;;17.85;100.00;97707.38;5158313;27;20133;-53
2023/06/17 00:39:08;;;;;;;9.60;7.68;;;;;;;17.77;100.00;97692.25;5158091;27;20149;-52
2023/06/17 00:41:34;;;;;;;13.23;7.25;;;;;;;17.75;100.00;97711.28;5158264;27;20133;-52
2023/06/17 00:44:00;;;;;;;21.60;7.55;;;;;;;17.77;100.00;97711.63;5157845;27;20657;-54
2023/06/17 00:46:35;;;;;;;15.68;7.20;;;;;;;17.64;100.00;97711.66;5157950;27;20082;-55
2023/06/17 00:49:03;;;;;;;14.05;7.38;;;;;;;17.57;100.00;97705.56;5157887;27;20141;-58
2023/06/17 00:51:31;;;;;;;14.02;6.82;;;;;;;17.50;100.00;97714.13;5157875;27;20054;-55
2023/06/17 00:53:58;;;;;;;14.45;7.53;;;;;;;17.50;100.00;97756.47;5158106;27;20047;-52
2023/06/17 00:56:25;;;;;;;11.85;7.40;;;;;;;17.54;100.00;97765.41;5157772;27;20047;-57
2023/06/17 00:58:51;;;;;;;10.48;8.05;;;;;;;17.60;100.00;97754.56;5157842;27;20054;-52
2023/06/17 01:01:18;;;;;;;13.90;7.47;;;;;;;17.60;100.00;97749.03;5157526;27;20428;-57
2023/06/17 01:03:45;;;;;;;12.05;6.53;;;;;;;17.63;100.00;97762.75;5158019;27;20366;-59
2023/06/17 01:06:19;;;;;;;13.48;6.65;;;;;;;17.66;100.00;97797.13;5157589;27;20057;-56
2023/06/17 01:08:57;;;;;;;13.80;7.50;;;;;;;17.53;100.00;97768.66;5157985;27;20051;-54
2023/06/17 01:11:24;;;;;;;13.55;6.40;;;;;;;17.52;100.00;97773.41;5157813;27;20043;-57
2023/06/17 01:13:54;;;;;;;18.08;7.43;;;;;;;17.52;100.00;97764.31;5157561;27;20051;-59
2023/06/17 01:16:21;;;;;;;18.55;7.97;;;;;;;17.44;100.00;97763.00;5157769;27;20055;-57
2023/06/17 01:18:52;;;;;;;11.07;6.95;;;;;;;17.45;100.00;97781.16;5157416;27;20061;-57
2023/06/17 01:21:18;;;;;;;11.30;7.15;;;;;;;17.44;100.00;97771.31;5157748;27;20184;-55
2023/06/17 01:23:45;;;;;;;13.13;8.90;;;;;;;17.44;100.00;97815.63;5157346;27;20106;-54
2023/06/17 01:26:11;;;;;;;12.95;7.63;;;;;;;17.26;100.00;97780.97;5161166;27;20420;-55
2023/06/17 01:28:38;;;;;;;13.68;7.22;;;;;;;17.35;100.00;97775.53;5160898;27;20142;-58
2023/06/17 01:31:04;;;;;;;11.38;6.70;;;;;;;17.32;100.00;97781.94;5161300;27;20050;-57
2023/06/17 01:33:31;;;;;;;11.20;6.95;;;;;;;17.23;100.00;97754.16;5160814;27;20050;-58
2023/06/17 01:36:03;;;;;;;10.20;6.80;;;;;;;17.15;100.00;97739.75;5160955;27;20050;-55
2023/06/17 01:38:33;;;;;;;11.20;9.57;;;;;;;17.00;100.00;97726.81;5161033;27;20057;-53
2023/06/17 01:41:03;;;;;;;9.50;6.50;;;;;;;16.96;100.00;97715.03;5160836;27;20057;-58
2023/06/17 01:43:32;;;;;;;10.80;6.78;;;;;;;16.99;100.00;97717.69;5161090;27;20051;-57
2023/06/17 01:45:59;;;;;;;13.05;7.53;;;;;;;16.93;100.00;97722.25;5160643;27;20057;-54
2023/06/17 01:48:25;;;;;;;8.90;6.22;;;;;;;16.90;100.00;97715.63;5161002;27;20046;-53
2023/06/17 01:50:51;;;;;;;14.82;7.22;;;;;;;16.85;100.00;97713.38;5160492;27;20050;-52
2023/06/17 01:53:17;;;;;;;13.90;7.60;;;;;;;16.86;100.00;97706.66;5160977;27;20054;-54
2023/06/17 01:55:43;;;;;;;10.57;7.10;;;;;;;16.88;100.00;97711.72;5160346;27;20360;-58
2023/06/17 01:58:10;;;;;;;11.95;7.32;;;;;;;16.96;100.00;97721.38;5160323;27;20051;-58
2023/06/17 02:00:36;;;;;;;10.90;7.25;;;;;;;17.00;100.00;97746.97;5160669;27;20046;-54
2023/06/17 02:03:02;;;;;;;12.05;7.72;;;;;;;17.00;100.00;97757.25;5160562;27;20137;-57
2023/06/17 02:05:28;;;;;;;14.38;7.05;;;;;;;17.05;100.00;97767.78;5160427;27;20138;-51
2023/06/17 02:07:56;;;;;;;10.20;7.00;;;;;;;17.06;100.00;97772.06;5160431;27;20199;-53
2023/06/17 02:10:22;;;;;;;15.18;9.60;;;;;;;17.04;100.00;97780.06;5160716;27;20047;-57
2023/06/17 02:12:48;;;;;;;15.00;7.13;;;;;;;17.20;100.00;97793.03;5160286;27;20050;-51
2023/06/17 02:15:14;;;;;;;12.13;7.72;;;;;;;17.27;100.00;97792.81;5160544;27;20070;-52
2023/06/17 02:17:42;;;;;;;12.60;9.40;;;;;;;17.09;100.00;97763.69;5160077;27;20058;-57
2023/06/17 02:20:10;;;;;;;10.77;6.55;;;;;;;17.23;100.00;97754.16;5160580;27;20042;-52
2023/06/17 02:22:36;;;;;;;12.13;7.05;;;;;;;17.65;100.00;97787.25;5160046;27;20051;-51
2023/06/17 02:25:03;;;;;;;10.88;7.50;;;;;;;17.84;100.00;97825.03;5160364;27;20126;-59
2023/06/17 02:27:29;;;;;;;11.68;9.43;;;;;;;18.30;100.00;97894.84;5160221;27;20050;-54
2023/06/17 02:29:55;;;;;;;11.27;6.85;;;;;;;18.56;100.00;97964.16;5160064;27;20078;-52
2023/06/17 02:32:21;;;;;;;10.15;6.82;;;;;;;18.87;100.00;97991.31;5159921;27;20141;-55
2023/06/17 02:34:48;;;;;;;12.30;7.13;;;;;;;19.23;100.00;98065.84;5159960;27;20047;-57
2023/06/17 02:37:14;;;;;;;13.73;6.95;;;;;;;19.58;100.00;98115.84;5159554;27;20057;-56
2023/06/17 02:39:40;;;;;;;15.73;7.10;;;;;;;19.87;100.00;98166.47;5159806;27;20065;-52
2023/06/17 02:42:07;;;;;;;9.82;8.57;;;;;;;20.17;100.00;98190.03;5160094;27;20050;-56
2023/06/17 02:44:33;;;;;;;12.18;7.13;;;;;;;20.35;100.00;98199.72;5159684;27;20047;-55
2023/06/17 02:46:59;;;;;;;10.40;6.57;;;;;;;20.54;100.00;98240.41;5159634;27;20057;-52
2023/06/17 02:49:25;;;;;;;11.48;7.28;;;;;;;20.80;100.00;98206.81;5159592;27;20142;-55
2023/06/17 02:51:51;;;;;;;11.93;7.45;;;;;;;20.84;100.00;98243.66;5160005;27;20137;-57
2023/06/17 02:54:17;;;;;;;13.80;7.20;;;;;;;21.11;100.00;98229.06;5159429;27;20343;-58
2023/06/17 02:56:43;;;;;;;13.20;6.90;;;;;;;21.35;100.00;98282.28;5159687;27;20138;-59
2023/06/17 02:59:09;;;;;;;9.95;6.93;;;;;;;21.53;100.00;98289.97;5159540;27;20043;-57
2023/06/17 03:01:39;;;;;;;9.95;6.78;;;;;;;21.64;100.00;98309.03;5159572;27;20043;-57
2023/06/17 03:04:05;;;;;;;13.15;7.70;;;;;;;21.90;100.00;98321.50;5159428;27;20062;-53
2023/06/17 03:06:33;;;;;;;11.77;7.60;;;;;;;21.83;100.00;98335.75;5159389;27;20460;-58
2023/06/17 03:09:00;;;;;;;13.43;7.53;;;;;;;21.78;100.00;98353.88;5159545;27;20452;-51
2023/06/17 03:11:28;;;;;;;12.65;7.35;;;;;;;22.18;100.00;98355.06;5159222;27;20046;-58
2023/06/17 03:13:54;;;;;;;7.63;6.32;;;;;;;22.29;100.00;98338.63;5159647;27;20046;-55
2023/06/17 03:16:20;;;;;;;11.90;7.13;;;;;;;22.57;100.00;98372.94;5159219;27;20482;-55
2023/06/17 03:18:47;;;;;;;10.75;7.65;;;;;;;22.46;100.00;98347.47;5159539;27;20061;-53
2023/06/17 03:21:13;;;;;;;12.85;6.65;;;;;;;22.81;100.00;98387.06;5159197;27;20462;-55
2023/06/17 03:23:40;;;;;;;12.02;9.07;;;;;;;23.41;100.00;98405.94;5158988;27;20137;-59
2023/06/17 03:26:07;;;;;;;14.88;7.00;;;;;;;23.37;100.00;98368.19;5159055;27;20046;-53
2023/06/17 03:28:32;;;;;;;10.45;6.65;;;;;;;23.43;100.00;98406.25;5159128;27;20050;-52
2023/06/17 03:30:58;;;;;;;8.13;6.22;;;;;;;23.65;100.00;98394.81;5159027;27;20155;-56
2023/06/17 03:33:24;;;;;;;9.13;7.85;;;;;;;23.76;100.00;98397.16;5158786;27;20137;-56
2023/06/17 03:35:50;;;;;;;9.70;6.88;;;;;;;23.88;100.00;98421.31;5159195;27;20082;-57
2023/06/17 03:38:16;;;;;;;10.30;6.72;;;;;;;23.84;100.00;98389.16;5158700;27;20434;-55
2023/06/17 03:40:42;;;;;;;10.27;6.95;;;;;;;24.21;100.00;98417.75;5159189;27;20078;-55
2023/06/17 03:43:09;;;;;;;8.45;6.63;;;;;;;23.97;100.00;98422.53;5158786;27;20134;-55
2023/06/17 03:45:35;;;;;;;10.75;6.80;;;;;;;24.09;100.00;98415.94;5159004;27;20091;-52
2023/06/17 03:48:03;;;;;;;10.07;8.13;;;;;;;24.26;100.00;98425.50;5157352;27;20054;-56
2023/06/17 03:50:29;;;;;;;11.15;8.32;;;;;;;24.56;100.00;98418.00;5159043;27;20071;-56
2023/06/17 03:52:55;;;;;;;13.05;8.45;;;;;;;24.97;94.87;98434.34;5159059;27;20057;-57
2023/06/17 03:55:22;;;;;;;11.82;7.07;;;;;;;24.62;98.14;98424.50;5158723;27;20078;-55
2023/06/17 03:57:48;;;;;;;13.77;7.07;;;;;;;24.71;95.39;98440.47;5158692;27;20050;-56
2023/06/17 04:00:15;;;;;;;11.15;7.07;;;;;;;24.88;96.83;98427.56;5158594;27;20111;-56
2023/06/17 04:02:44;;;;;;;10.43;8.35;;;;;;;25.07;96.58;98430.22;5158491;27;20127;-52
2023/06/17 04:05:11;;;;;;;10.30;8.70;;;;;;;25.24;90.97;98447.38;5158447;27;20115;-52
2023/06/17 04:07:38;;;;;;;11.68;8.18;;;;;;;25.57;88.09;98447.97;5158658;27;20047;-55
2023/06/17 04:10:06;;;;;;;8.68;7.78;;;;;;;25.93;87.91;98445.25;5158361;27;20115;-58
2023/06/17 04:12:32;;;;;;;8.48;7.35;;;;;;;26.25;81.82;98463.06;5158703;27;20047;-52
2023/06/17 04:14:58;;;;;;;13.75;7.50;;;;;;;26.58;86.03;98456.41;5158215;27;20137;-52
2023/06/17 04:17:24;;;;;;;12.00;7.78;;;;;;;26.25;83.50;98463.84;5158700;27;20141;-55
2023/06/17 04:19:54;;;;;;;12.23;7.55;;;;;;;26.73;78.79;98460.69;5157996;27;20065;-55
2023/06/17 04:22:20;;;;;;;10.68;7.65;;;;;;;26.91;75.08;98472.91;5158292;27;20047;-52
2023/06/17 04:24:46;;;;;;;9.30;6.43;;;;;;;26.83;74.24;98471.81;5158461;27;20047;-53
2023/06/17 04:27:12;;;;;;;7.72;6.97;;;;;;;26.80;73.35;98472.78;5158478;27;20133;-58
2023/06/17 04:29:38;;;;;;;7.88;7.10;;;;;;;27.07;72.87;98468.75;5158140;27;20366;-58
2023/06/17 04:32:04;;;;;;;10.20;6.78;;;;;;;26.46;75.67;98466.72;5157916;27;20137;-58
2023/06/17 04:34:31;;;;;;;12.02;7.53;;;;;;;26.48;75.87;98462.16;5158201;27;20146;-59
2023/06/17 04:36:57;;;;;;;8.90;7.18;;;;;;;26.20;78.20;98469.41;5157977;27;20046;-58
2023/06/17 04:39:24;;;;;;;13.73;7.05;;;;;;;26.73;77.20;98474.75;5158189;27;20051;-59
2023/06/17 04:41:50;;;;;;;12.75;7.47;;;;;;;27.30;74.65;98470.56;5157790;27;20047;-58
2023/06/17 04:44:16;;;;;;;10.18;7.10;;;;;;;27.51;72.25;98478.94;5158302;27;20137;-52
2023/06/17 04:46:43;;;;;;;9.65;6.15;;;;;;;27.50;70.27;98477.41;5157651;27;20046;-54
2023/06/17 04:49:10;;;;;;;6.57;5.97;;;;;;;27.06;72.07;98475.63;5157973;27;20050;-55
2023/06/17 04:51:40;;;;;;;12.43;7.05;;;;;;;26.31;77.66;98472.38;5157888;27;20047;-58
2023/06/17 04:54:06;;;;;;;8.93;6.07;;;;;;;25.58;79.18;98468.38;5157569;27;20412;-57
2023/06/17 04:56:32;;;;;;;7.43;5.47;;;;;;;26.23;77.52;98476.84;5157751;27;20043;-58
2023/06/17 04:58:58;;;;;;;8.60;6.15;;;;;;;27.16;74.24;98472.22;5157828;27;20376;-53
2023/06/17 05:01:24;;;;;;;6.35;5.70;;;;;;;27.44;71.30;98482.97;5161564;27;20404;-59
2023/06/17 05:03:50;;;;;;;6.90;5.90;;;;;;;27.32;71.64;98482.09;5161414;27;20098;-58
2023/06/17 05:06:16;;;;;;;6.65;6.00;;;;;;;27.91;68.13;98478.03;5161421;27;20318;-57
2023/06/17 05:08:43;;;;;;;6.57;5.93;;;;;;;29.13;65.73;98498.28;5161524;27;20324;-54
2023/06/17 05:11:09;;;;;;;7.22;5.70;;;;;;;29.07;66.22;98496.19;5161773;27;20149;-56
2023/06/17 05:13:34;;;;;;;11.23;5.70;;;;;;;29.20;65.98;98497.78;5161123;27;20044;-53
2023/06/17 05:16:00;;;;;;;8.20;6.22;;;;;;;30.26;63.10;98497.13;5161543;27;20086;-55
2023/06/17 05:18:26;;;;;;;6.35;5.45;;;;;;;30.39;60.72;98496.59;5161307;27;20046;-52
2023/06/17 05:20:52;;;;;;;7.53;5.72;;;;;;;30.64;59.90;98498.31;5161258;27;20043;-54
2023/06/17 05:23:18;;;;;;;12.55;6.55;;;;;;;30.94;59.70;98498.50;5161293;27;20078;-56
2023/06/17 05:25:45;;;;;;;7.57;5.55;;;;;;;31.41;60.18;98501.38;5160903;27;20050;-59
2023/06/17 05:28:11;;;;;;;8.50;5.82;;;;;;;30.61;59.29;98499.38;5161244;27;20094;-58
2023/06/17 05:30:38;;;;;;;8.25;5.65;;;;;;;31.91;58.24;98508.00;5161106;27;20047;-60
2023/06/17 05:33:04;;;;;;;6.70;5.60;;;;;;;32.45;57.44;98507.28;5161226;27;20088;-52
2023/06/17 05:35:30;;;;;;;9.88;5.53;;;;;;;31.10;58.42;98502.56;5160863;27;20145;-55
2023/06/17 05:37:57;;;;;;;6.70;5.30;;;;;;;31.51;58.40;98501.81;5161083;27;20062;-53
2023/06/17 05:40:23;;;;;;;7.63;5.22;;;;;;;32.07;58.00;98504.25;5160651;27;20085;-54
2023/06/17 05:42:49;;;;;;;6.68;5.43;;;;;;;32.72;57.61;98504.66;5161098;27;20043;-56
2023/06/17 05:45:16;;;;;;;7.50;5.55;;;;;;;32.68;56.27;98498.53;5160533;27;20043;-58
2023/06/17 05:47:42;;;;;;;7.32;5.25;;;;;;;31.07;59.05;98497.16;5160835;27;20305;-55
2023/06/17 05:50:08;;;;;;;7.18;5.43;;;;;;;31.79;58.67;98501.66;5160809;27;20106;-52
2023/06/17 05:52:34;;;;;;;6.60;5.10;;;;;;;31.63;57.23;98508.97;5160932;27;20137;-56
2023/06/17 05:55:00;;;;;;;11.98;5.45;;;;;;;31.90;57.04;98503.66;5160821;27;20070;-60
2023/06/17 05:57:26;;;;;;;9.40;4.88;;;;;;;32.14;56.78;98502.16;5160580;27;20127;-60
2023/06/17 05:59:53;;;;;;;7.63;5.25;;;;;;;32.58;56.67;98504.56;5160724;27;20050;-60
2023/06/17 06:02:19;;;;;;;11.40;4.90;;;;;;;32.20;57.28;98508.53;5160401;27;20074;-59
2023/06/17 06:04:47;;;;;;;8.25;4.93;;;;;;;33.16;55.30;98500.53;5160691;27;20053;-61
2023/06/17 06:07:13;;;;;;;8.90;4.95;;;;;;;32.56;55.09;98495.06;5160237;27;20078;-54
2023/06/17 06:09:38;;;;;;;7.60;5.00;;;;;;;33.00;54.81;98493.78;5160663;27;20097;-57
2023/06/17 06:12:05;;;;;;;4.20;3.80;;;;;;;32.02;54.92;98498.63;5158916;27;20412;-58
2023/06/17 06:14:31;;;;;;;4.50;4.07;;;;;;;32.35;54.36;98497.56;5160539;27;20061;-57
2023/06/17 06:16:57;;;;;;;7.05;4.40;;;;;;;33.43;52.81;98501.47;5160251;27;20078;-56
2023/06/17 06:19:23;;;;;;;7.75;4.72;;;;;;;32.74;52.90;98497.16;5160135;27;20054;-57
2023/06/17 06:21:49;;;;;;;10.73;4.57;;;;;;;31.30;55.21;98501.41;5160273;27;20051;-56
2023/06/17 06:24:15;;;;;;;5.72;4.18;;;;;;;30.46;57.53;98499.66;5159872;27;20454;-56
2023/06/17 06:26:41;;;;;;;6.82;4.40;;;;;;;29.69;59.80;98495.56;5160385;27;20046;-57
2023/06/17 06:29:09;;;;;;;6.32;4.25;;;;;;;29.82;60.07;98503.53;5159652;27;20332;-57
2023/06/17 06:31:35;;;;;;;7.43;3.88;;;;;;;29.88;59.41;98499.44;5159876;27;20054;-52
2023/06/17 06:34:02;;;;;;;9.43;4.28;;;;;;;30.05;60.95;98502.25;5159664;27;20408;-57
2023/06/17 06:36:28;;;;;;;4.90;4.38;;;;;;;30.08;60.33;98500.47;5160039;27;20050;-52
2023/06/17 06:38:54;;;;;;;8.10;3.72;;;;;;;31.20;57.88;98493.75;5159585;27;20046;-51
2023/06/17 06:41:20;;;;;;;7.50;4.35;;;;;;;32.25;56.60;98499.19;5160075;27;20050;-58
2023/06/17 06:43:46;;;;;;;8.30;4.10;;;;;;;33.16;54.54;98503.38;5159593;27;20047;-56
2023/06/17 06:46:12;;;;;;;7.93;4.18;;;;;;;31.86;54.80;98509.56;5159797;27;20129;-54
2023/06/17 06:48:38;;;;;;;5.13;3.90;;;;;;;31.77;54.24;98503.47;5159599;27;20058;-53
2023/06/17 06:51:04;;;;;;;9.20;3.92;;;;;;;32.26;54.25;98504.34;5159406;27;20137;-51
2023/06/17 06:53:30;;;;;;;9.00;4.43;;;;;;;31.29;55.31;98501.94;5159513;27;20057;-55
2023/06/17 06:55:56;;;;;;;6.60;4.50;;;;;;;32.59;54.99;98502.50;5159181;27;20141;-55
2023/06/17 06:58:22;;;;;;;7.05;4.20;;;;;;;32.24;54.87;98498.44;5159627;27;20107;-55
2023/06/17 07:00:48;;;;;;;8.93;4.25;;;;;;;33.69;53.30;98505.72;5159364;27;20133;-55
2023/06/17 07:03:14;;;;;;;8.88;4.03;;;;;;;33.35;52.50;98509.03;5159975;27;20057;-58
2023/06/17 07:05:40;;;;;;;8.20;4.30;;;;;;;34.05;51.89;98502.59;5159451;27;20047;-58
2023/06/17 07:08:06;;;;;;;4.75;3.90;;;;;;;32.75;51.59;98518.56;5159216;27;20309;-54
2023/06/17 07:10:34;;;;;;;10.05;4.75;;;;;;;34.00;50.80;98503.44;5159530;27;20050;-59
2023/06/17 07:13:00;;;;;;;4.32;3.90;;;;;;;32.42;51.76;98499.81;5159181;27;20043;-54
2023/06/17 07:15:26;;;;;;;7.72;4.80;;;;;;;31.24;52.81;98497.06;5159141;27;20043;-55
2023/06/17 07:17:52;;;;;;;7.45;4.45;;;;;;;31.92;52.90;98497.44;5159087;27;20077;-53
2023/06/17 07:20:18;;;;;;;5.07;4.13;;;;;;;33.46;51.93;98506.06;5159257;27;20210;-59
2023/06/17 07:22:44;;;;;;;5.38;4.20;;;;;;;31.87;53.74;98496.97;5158759;27;20438;-60
2023/06/17 07:25:10;;;;;;;6.60;4.13;;;;;;;31.45;53.97;98492.59;5159418;27;20107;-55
2023/06/17 07:27:36;;;;;;;5.68;4.20;;;;;;;30.96;54.86;98489.50;5158911;27;20141;-58
2023/06/17 07:30:03;;;;;;;7.72;3.85;;;;;;;32.77;52.66;98504.59;5159163;27;20051;-54
2023/06/17 07:32:29;;;;;;;6.43;4.15;;;;;;;32.88;50.81;98508.59;5158884;27;20047;-59
2023/06/17 07:34:55;;;;;;;6.60;4.22;;;;;;;33.01;51.47;98497.38;5158808;27;20062;-58
2023/06/17 07:37:21;;;;;;;6.60;4.43;;;;;;;34.24;49.66;98496.84;5158616;27;20059;-53
2023/06/17 07:39:46;;;;;;;6.95;4.57;;;;;;;33.43;50.18;98507.13;5159001;27;20051;-52
2023/06/17 07:42:13;;;;;;;7.72;3.88;;;;;;;31.61;52.79;98490.94;5159477;27;20154;-55
2023/06/17 07:44:39;;;;;;;7.47;4.63;;;;;;;30.56;55.28;98493.75;5158602;27;20054;-57
2023/06/17 07:47:06;;;;;;;9.48;4.40;;;;;;;31.65;54.24;98495.03;5158822;27;20089;-59
2023/06/17 07:49:33;;;;;;;8.15;4.35;;;;;;;31.96;52.98;98512.88;5158745;27;20050;-55
2023/06/17 07:51:59;;;;;;;6.38;4.68;;;;;;;31.46;53.26;98499.03;5158744;27;20100;-55
2023/06/17 07:54:25;;;;;;;5.93;3.92;;;;;;;30.28;55.50;98494.56;5158542;27;20043;-55
2023/06/17 07:56:51;;;;;;;6.38;4.10;;;;;;;30.46;56.42;98487.59;5158846;27;20309;-58
2023/06/17 07:59:17;;;;;;;8.80;4.35;;;;;;;31.74;54.35;98502.44;5158491;27;20051;-58
2023/06/17 08:01:43;;;;;;;4.97;4.15;;;;;;;30.16;53.62;98495.84;5158803;27;20086;-57
2023/06/17 08:04:09;;;;;;;9.43;4.47;;;;;;;29.00;57.60;98505.16;5158459;27;20046;-55
2023/06/17 08:06:37;;;;;;;10.32;4.70;;;;;;;30.53;56.25;98491.94;5158706;27;20083;-55
2023/06/17 08:09:03;;;;;;;4.75;4.32;;;;;;;32.44;53.50;98491.56;5158406;27;20097;-53
2023/06/17 08:11:29;;;;;;;4.97;4.20;;;;;;;31.87;52.50;98490.50;5158743;27;20142;-59
2023/06/17 08:13:55;;;;;;;4.57;4.03;;;;;;;32.86;51.76;98488.53;5158176;27;20050;-58
2023/06/17 08:16:22;;;;;;;6.63;4.47;;;;;;;32.60;50.88;98511.78;5158119;27;20154;-56
2023/06/17 08:18:48;;;;;;;7.60;4.55;;;;;;;31.65;51.55;98502.75;5158136;27;20145;-59
2023/06/17 08:21:13;;;;;;;7.03;4.00;;;;;;;30.57;53.95;98500.94;5158254;27;20078;-56
2023/06/17 08:23:40;;;;;;;8.05;4.10;;;;;;;31.28;52.58;98506.81;5158447;27;20057;-52
2023/06/17 08:26:06;;;;;;;5.65;4.30;;;;;;;31.55;51.72;98507.22;5157932;27;20435;-56
2023/06/17 08:28:32;;;;;;;7.35;4.28;;;;;;;31.54;52.48;98502.84;5158360;27;20054;-57
2023/06/17 08:30:58;;;;;;;4.60;4.20;;;;;;;31.67;51.74;98499.41;5158229;27;20054;-54
2023/06/17 08:33:25;;;;;;;7.88;3.97;;;;;;;31.04;53.44;98496.16;5158335;27;20061;-53
2023/06/17 08:35:50;;;;;;;9.57;4.65;;;;;;;31.58;52.22;98500.50;5157605;27;20117;-58
2023/06/17 08:38:16;;;;;;;9.52;4.25;;;;;;;31.50;51.88;98499.53;5158536;27;20085;-59
2023/06/17 08:40:44;;;;;;;7.32;4.55;;;;;;;31.45;52.73;98495.44;5157842;27;20141;-59
2023/06/17 08:43:11;;;;;;;8.93;4.38;;;;;;;32.60;51.46;98508.94;5158169;27;20099;-55
2023/06/17 08:45:39;;;;;;;9.60;4.35;;;;;;;32.26;50.91;98498.69;5157805;27;20468;-58
2023/06/17 08:48:06;;;;;;;9.95;4.53;;;;;;;34.26;48.92;98508.47;5157799;27;20085;-58
2023/06/17 08:50:34;;;;;;;9.43;4.20;;;;;;;33.42;48.90;98516.19;5157834;27;20516;-59
2023/06/17 08:53:00;;;;;;;6.20;4.35;;;;;;;32.79;49.72;98504.09;5157820;27;20133;-60
2023/06/17 08:55:26;;;;;;;7.57;4.20;;;;;;;33.64;49.37;98500.91;5158026;27;20053;-56
2023/06/17 08:57:52;;;;;;;6.65;3.95;;;;;;;34.41;47.94;98505.84;5157622;27;20368;-58
2023/06/17 09:00:18;;;;;;;6.07;4.32;;;;;;;33.53;48.28;98507.53;5157929;27;20061;-57
2023/06/17 09:02:45;;;;;;;8.27;4.35;;;;;;;33.32;48.43;98510.13;5157628;27;20089;-54
2023/06/17 09:05:11;;;;;;;6.43;3.90;;;;;;;33.14;47.74;98502.38;5157937;27;20047;-58
2023/06/17 09:07:38;;;;;;;13.30;5.07;;;;;;;32.64;47.89;98507.34;5157474;27;20077;-59
2023/06/17 09:10:05;;;;;;;4.53;4.13;;;;;;;33.95;46.68;98505.81;5157884;27;20191;-56
2023/06/17 09:12:36;;;;;;;4.85;4.13;;;;;;;34.36;46.25;98501.03;5157720;27;20138;-56
2023/06/17 09:15:02;;;;;;;8.40;4.30;;;;;;;33.22;47.12;98501.25;5157370;27;20054;-54
2023/06/17 09:17:30;;;;;;;4.47;3.95;;;;;;;32.60;48.13;98491.91;5157730;27;20051;-59
2023/06/17 09:19:56;;;;;;;4.95;4.20;;;;;;;31.89;50.06;98490.78;5157436;27;20077;-57
2023/06/17 09:22:25;;;;;;;6.30;4.78;;;;;;;31.69;48.66;98494.78;5157660;27;20403;-58
2023/06/17 09:24:57;;;;;;;6.03;4.43;;;;;;;32.08;48.32;98499.34;5157279;27;20211;-53
2023/06/17 09:27:25;;;;;;;6.45;4.30;;;;;;;31.99;48.24;98494.81;5157564;27;20103;-61
2023/06/17 09:30:06;;;;;;;7.88;3.97;;;;;;;31.63;48.36;98494.03;5157336;27;20054;-60
2023/06/17 09:32:38;;;;;;;7.10;4.30;;;;;;;30.46;49.48;98488.34;5157737;27;20058;-58
2023/06/17 09:35:06;;;;;;;6.57;4.55;;;;;;;30.19;50.51;98494.81;5157468;27;20054;-53
2023/06/17 09:37:32;;;;;;;5.40;4.32;;;;;;;31.06;48.80;98485.09;5157436;27;20381;-55
2023/06/17 09:39:59;;;;;;;7.07;4.30;;;;;;;30.78;48.51;98487.25;5157385;27;20145;-54
2023/06/17 09:42:30;;;;;;;11.48;4.68;;;;;;;30.60;49.50;98494.25;5157208;27;20053;-61
2023/06/17 09:44:56;;;;;;;12.02;4.95;;;;;;;31.76;49.07;98487.75;5157413;27;20069;-60
2023/06/17 09:47:32;;;;;;;6.47;4.05;;;;;;;31.58;48.98;98494.84;5160651;27;20058;-55
2023/06/17 09:50:02;;;;;;;5.93;4.05;;;;;;;31.15;48.47;98484.00;5160747;27;20068;-56
2023/06/17 09:52:30;;;;;;;8.70;4.50;;;;;;;30.85;47.89;98490.31;5160502;27;20091;-56
2023/06/17 09:54:57;;;;;;;5.95;4.53;;;;;;;31.87;47.46;98479.94;5160715;27;20050;-60
2023/06/17 09:57:26;;;;;;;4.30;3.90;;;;;;;31.20;47.52;98471.88;5160299;27;20095;-57
2023/06/17 09:59:55;;;;;;;4.78;4.05;;;;;;;31.61;46.87;98471.13;5160128;27;20408;-56
2023/06/17 10:02:21;;;;;;;9.10;4.47;;;;;;;31.73;45.39;98468.97;5160425;27;20067;-51
2023/06/17 10:04:47;;;;;;;5.03;3.97;;;;;;;32.35;44.92;98475.63;5160281;27;20134;-58
2023/06/17 10:07:14;;;;;;;8.88;4.13;;;;;;;33.38;44.80;98470.28;5160091;27;20324;-58
2023/06/17 10:09:41;;;;;;;5.57;4.50;;;;;;;33.65;45.66;98471.19;5159921;27;20050;-52
2023/06/17 10:12:09;;;;;;;6.03;4.20;;;;;;;32.53;46.12;98473.44;5160191;27;20195;-57
2023/06/17 10:14:37;;;;;;;5.40;4.30;;;;;;;32.93;44.93;98474.50;5159837;27;20107;-52
2023/06/17 10:17:07;;;;;;;10.85;4.30;;;;;;;32.68;45.02;98472.97;5160318;27;20051;-56
2023/06/17 10:19:37;;;;;;;13.52;4.70;;;;;;;33.65;44.92;98468.34;5159869;27;20079;-59
2023/06/17 10:22:08;;;;;;;5.43;3.63;;;;;;;33.23;44.21;98473.59;5160427;27;20141;-57
2023/06/17 10:24:35;;;;;;;7.22;4.18;;;;;;;32.76;44.85;98465.41;5159609;27;20507;-59
2023/06/17 10:27:03;;;;;;;6.28;4.70;;;;;;;34.41;44.20;98466.00;5159813;27;20086;-57
2023/06/17 10:29:29;;;;;;;6.07;4.35;;;;;;;33.52;43.92;98471.88;5160189;27;20130;-58
2023/06/17 10:31:55;;;;;;;5.55;4.15;;;;;;;34.42;43.11;98462.63;5159659;27;20480;-60
2023/06/17 10:34:22;;;;;;;6.40;3.80;;;;;;;32.80;43.85;98458.13;5160105;27;20059;-58
2023/06/17 10:36:51;;;;;;;8.90;4.07;;;;;;;33.33;44.54;98456.94;5159699;27;20134;-55
2023/06/17 10:39:17;;;;;;;5.13;3.88;;;;;;;32.05;45.53;98461.47;5160028;27;20206;-55
2023/06/17 10:41:57;;;;;;;4.65;4.25;;;;;;;32.41;45.43;98466.28;5159753;27;20454;-55
2023/06/17 10:44:42;;;;;;;10.63;4.60;;;;;;;33.18;44.66;98458.16;5160041;27;20095;-58
2023/06/17 10:47:22;;;;;;;7.22;4.00;;;;;;;31.93;45.45;98462.91;5159476;27;20055;-58
2023/06/17 10:49:49;;;;;;;4.97;3.92;;;;;;;32.31;45.92;98460.97;5159774;27;20047;-56
2023/06/17 10:52:16;;;;;;;5.00;4.03;;;;;;;31.97;44.71;98460.53;5159779;27;20043;-54
2023/06/17 10:54:50;;;;;;;8.55;4.13;;;;;;;32.52;44.01;98458.47;5159514;27;20064;-52
2023/06/17 10:57:16;;;;;;;9.07;4.03;;;;;;;32.83;44.71;98452.69;5159005;27;20138;-58
2023/06/17 10:59:42;;;;;;;4.20;3.80;;;;;;;32.16;45.45;98451.34;5159169;27;20051;-54
2023/06/17 11:02:08;;;;;;;7.30;4.35;;;;;;;31.85;44.74;98451.31;5159611;27;20043;-52
2023/06/17 11:04:36;;;;;;;8.43;3.97;;;;;;;30.86;45.08;98446.59;5159200;27;20046;-55
2023/06/17 11:07:04;;;;;;;4.40;4.00;;;;;;;30.33;45.86;98447.78;5159831;27;20058;-55
2023/06/17 11:09:32;;;;;;;5.65;4.40;;;;;;;30.78;45.59;98447.63;5159183;27;20050;-55
2023/06/17 11:12:02;;;;;;;4.25;3.85;;;;;;;31.36;45.64;98441.97;5159323;27;20540;-56
2023/06/17 11:14:29;;;;;;;4.80;4.30;;;;;;;30.74;44.82;98439.41;5159057;27;20047;-52
2023/06/17 11:16:56;;;;;;;4.90;3.90;;;;;;;30.63;44.98;98436.63;5159226;27;20050;-55
2023/06/17 11:19:22;;;;;;;4.63;4.00;;;;;;;31.04;44.90;98439.53;5159562;27;20057;-51
2023/06/17 11:21:51;;;;;;;6.88;4.53;;;;;;;30.83;45.65;98435.53;5159148;27;20146;-56
2023/06/17 11:24:17;;;;;;;7.38;4.20;;;;;;;31.16;45.25;98431.75;5159009;27;20339;-51